Time;durP1;ratioP1;P1;durP2;ratioP2;P2;SDS_P1;SDS_P2;PMS_P1;PMS_P2;Temp;Humidity;BMP_temperature;BMP_pressure;BME280_temperature;BME280_humidity;BME280_pressure;Samples;Min_cycle;Max_cycle;Signal;HPM_P1;HPM_P2
2023/06/05 00:01:09;;;;;;;3.38;2.38;;;22.40;43.20;;;;;;5013663;28;20192;-79
2023/06/05 00:03:36;;;;;;;2.30;2.10;;;22.50;43.20;;;;;;5013450;28;20189;-79
2023/06/05 00:06:04;;;;;;;2.30;2.10;;;22.40;43.20;;;;;;5013180;28;20225;-79
2023/06/05 00:08:31;;;;;;;2.58;2.38;;;22.40;43.20;;;;;;5013250;28;20197;-79
2023/06/05 00:10:58;;;;;;;2.30;2.10;;;22.50;43.20;;;;;;5029724;28;20671;-79
2023/06/05 00:13:25;;;;;;;2.95;2.35;;;22.40;43.20;;;;;;5014588;28;20211;-79
2023/06/05 00:15:52;;;;;;;2.65;2.45;;;22.40;43.20;;;;;;5013599;28;20217;-78
2023/06/05 00:18:21;;;;;;;2.38;2.17;;;22.40;43.40;;;;;;5029738;28;20254;-78
2023/06/05 00:20:48;;;;;;;2.38;2.17;;;22.30;43.30;;;;;;5029665;28;20196;-78
2023/06/05 00:23:15;;;;;;;2.20;2.00;;;22.40;43.40;;;;;;5013068;28;20223;-78
2023/06/05 00:25:42;;;;;;;2.50;2.30;;;22.40;43.50;;;;;;5012894;28;20221;-78
2023/06/05 00:28:10;;;;;;;2.25;2.00;;;22.40;43.60;;;;;;5013106;28;20582;-78
2023/06/05 00:30:37;;;;;;;2.00;1.90;;;22.30;43.50;;;;;;5013008;28;20724;-78
2023/06/05 00:33:04;;;;;;;2.45;2.20;;;22.30;43.60;;;;;;5013159;28;20296;-78
2023/06/05 00:35:33;;;;;;;2.30;2.10;;;22.30;43.60;;;;;;5013094;28;20575;-78
2023/06/05 00:38:00;;;;;;;2.58;2.38;;;22.20;43.60;;;;;;5029454;28;20667;-78
2023/06/05 00:40:27;;;;;;;2.67;2.05;;;22.30;43.70;;;;;;5029155;28;20663;-78
2023/06/05 00:42:54;;;;;;;2.40;2.20;;;22.30;43.70;;;;;;5012749;28;20243;-78
2023/06/05 00:45:21;;;;;;;2.40;2.17;;;22.20;43.70;;;;;;5012668;28;20231;-78
2023/06/05 00:47:48;;;;;;;2.28;2.08;;;22.20;43.80;;;;;;5012953;28;20197;-78
2023/06/05 00:50:16;;;;;;;3.15;2.10;;;22.20;43.80;;;;;;5029599;28;20203;-78
2023/06/05 00:52:45;;;;;;;2.75;2.17;;;22.20;43.90;;;;;;5012782;28;20195;-78
2023/06/05 00:55:12;;;;;;;2.50;2.30;;;22.20;43.90;;;;;;5029120;28;20589;-78
2023/06/05 00:57:39;;;;;;;2.58;2.38;;;22.20;43.90;;;;;;5012681;28;20682;-78
2023/06/05 01:00:08;;;;;;;2.25;2.05;;;22.10;43.90;;;;;;5029302;28;20623;-78
2023/06/05 01:02:37;;;;;;;2.92;2.20;;;22.10;44.00;;;;;;5012860;28;20196;-78
2023/06/05 01:05:04;;;;;;;2.38;2.10;;;22.10;44.00;;;;;;5012811;28;20302;-78
2023/06/05 01:07:32;;;;;;;2.90;2.50;;;22.10;44.10;;;;;;5012890;28;20219;-78
2023/06/05 01:10:01;;;;;;;2.13;1.92;;;22.10;44.10;;;;;;5029256;28;20332;-78
2023/06/05 01:12:31;;;;;;;2.00;1.90;;;22.10;44.20;;;;;;4996039;28;20228;-78
2023/06/05 01:14:59;;;;;;;2.40;2.20;;;22.10;44.20;;;;;;5013896;28;20687;-78
2023/06/05 01:17:28;;;;;;;2.72;2.00;;;22.10;44.30;;;;;;5029154;28;20247;-78
2023/06/05 01:19:55;;;;;;;2.20;2.00;;;22.00;44.30;;;;;;5012959;28;20551;-78
2023/06/05 01:22:25;;;;;;;2.17;2.00;;;22.00;44.30;;;;;;5016609;28;20694;-78
2023/06/05 01:24:54;;;;;;;2.20;2.00;;;22.00;44.30;;;;;;5033067;28;20220;-78
2023/06/05 01:27:28;;;;;;;2.30;2.10;;;22.00;44.30;;;;;;5016565;28;20220;-78
2023/06/05 01:32:46;;;;;;;2.38;2.17;;;22.00;44.40;;;;;;5015540;28;20181;-78
2023/06/05 01:35:16;;;;;;;2.30;2.10;;;22.00;44.40;;;;;;5025730;28;20216;-78
2023/06/05 01:37:48;;;;;;;2.78;2.20;;;22.00;44.50;;;;;;5041806;28;20212;-77
2023/06/05 01:40:17;;;;;;;2.20;2.00;;;22.00;44.50;;;;;;5034329;28;20212;-78
2023/06/05 01:42:45;;;;;;;2.22;1.85;;;22.00;44.50;;;;;;5015980;28;20262;-78
2023/06/05 01:45:13;;;;;;;2.10;2.00;;;22.00;44.60;;;;;;5016094;28;20706;-78
2023/06/05 01:47:40;;;;;;;2.35;2.15;;;22.00;44.70;;;;;;5016946;28;20669;-78
2023/06/05 01:50:09;;;;;;;2.47;2.13;;;22.00;44.70;;;;;;5017091;28;20196;-78
2023/06/05 01:52:39;;;;;;;2.10;1.88;;;22.00;44.70;;;;;;5017437;28;20197;-78
2023/06/05 01:55:07;;;;;;;2.97;2.20;;;21.90;44.70;;;;;;5015692;28;20596;-78
2023/06/05 01:57:36;;;;;;;2.30;2.10;;;21.90;44.70;;;;;;5032960;28;20207;-78
2023/06/05 02:00:08;;;;;;;2.42;2.22;;;21.90;44.70;;;;;;5015603;28;20197;-78
2023/06/05 02:02:41;;;;;;;2.00;1.80;;;21.80;44.70;;;;;;5016859;28;20188;-78
2023/06/05 02:05:09;;;;;;;2.00;1.90;;;21.90;44.80;;;;;;5015327;28;20750;-78
2023/06/05 02:07:39;;;;;;;2.58;2.10;;;21.90;44.80;;;;;;5015529;28;20667;-78
2023/06/05 02:10:09;;;;;;;2.15;1.95;;;21.90;45.00;;;;;;4999528;28;20217;-78
2023/06/05 02:12:38;;;;;;;2.20;2.00;;;21.90;44.90;;;;;;5015543;28;20204;-78
2023/06/05 02:15:06;;;;;;;2.47;2.28;;;21.80;44.80;;;;;;5031944;28;20299;-78
2023/06/05 02:17:34;;;;;;;2.13;1.92;;;21.90;44.90;;;;;;5015291;28;20216;-78
2023/06/05 02:20:01;;;;;;;2.35;2.10;;;21.80;44.90;;;;;;5015260;28;20201;-78
2023/06/05 02:22:28;;;;;;;2.00;1.80;;;21.80;44.90;;;;;;5015143;28;20203;-78
2023/06/05 02:24:56;;;;;;;2.03;1.83;;;21.80;45.00;;;;;;5015086;28;20279;-78
2023/06/05 02:27:26;;;;;;;2.17;1.98;;;21.80;45.00;;;;;;5031642;28;20205;-78
2023/06/05 02:29:54;;;;;;;2.20;1.90;;;21.80;45.00;;;;;;5015033;28;20639;-78
2023/06/05 02:32:26;;;;;;;2.50;2.30;;;21.80;45.00;;;;;;5015192;28;20201;-78
2023/06/05 02:34:56;;;;;;;2.13;1.75;;;21.80;45.00;;;;;;5031284;28;20259;-78
2023/06/05 02:37:24;;;;;;;2.00;1.90;;;21.80;45.00;;;;;;5015003;28;20204;-78
2023/06/05 02:39:51;;;;;;;2.30;2.10;;;21.70;45.00;;;;;;5031457;28;20192;-78
2023/06/05 02:42:19;;;;;;;2.05;1.80;;;21.70;45.00;;;;;;5014834;28;20281;-78
2023/06/05 02:44:48;;;;;;;2.40;2.10;;;21.70;45.00;;;;;;4982456;28;20225;-78
2023/06/05 02:47:16;;;;;;;2.95;1.77;;;21.70;45.10;;;;;;5014921;28;20255;-78
2023/06/05 02:49:44;;;;;;;2.10;2.00;;;21.70;45.10;;;;;;5014954;28;20667;-78
2023/06/05 02:52:11;;;;;;;2.45;2.10;;;21.70;45.10;;;;;;5014749;28;20193;-78
2023/06/05 02:54:39;;;;;;;2.30;2.10;;;21.70;45.10;;;;;;5015225;28;20224;-78
2023/06/05 02:57:08;;;;;;;2.05;1.88;;;21.70;45.10;;;;;;5014449;28;20203;-78
2023/06/05 02:59:39;;;;;;;2.63;2.10;;;21.60;45.10;;;;;;5030965;28;20208;-78
2023/06/05 03:02:07;;;;;;;2.38;2.15;;;21.60;45.10;;;;;;5015716;28;20196;-78
2023/06/05 03:04:40;;;;;;;2.25;2.10;;;21.60;45.10;;;;;;5014742;28;20311;-78
2023/06/05 03:07:09;;;;;;;2.22;1.90;;;21.60;45.10;;;;;;5014537;28;20248;-78
2023/06/05 03:09:37;;;;;;;2.38;2.13;;;21.60;45.00;;;;;;5031031;28;20204;-78
2023/06/05 03:12:05;;;;;;;2.20;2.00;;;21.60;45.00;;;;;;5014422;28;20203;-78
2023/06/05 03:14:32;;;;;;;2.05;1.90;;;21.50;44.90;;;;;;5014698;28;20641;-78
2023/06/05 03:17:00;;;;;;;2.00;1.73;;;21.50;44.80;;;;;;5015143;28;20189;-78
2023/06/05 03:19:28;;;;;;;3.33;2.50;;;21.60;44.90;;;;;;5014487;28;20197;-78
2023/06/05 03:22:00;;;;;;;2.30;2.10;;;21.50;44.80;;;;;;5031918;28;20207;-78
2023/06/05 03:24:27;;;;;;;2.10;2.00;;;21.60;44.90;;;;;;5030346;28;20299;-78
2023/06/05 03:27:00;;;;;;;2.05;1.95;;;21.60;44.90;;;;;;4999645;28;20208;-78
2023/06/05 03:29:28;;;;;;;2.50;2.30;;;21.60;44.80;;;;;;5014135;28;20200;-78
2023/06/05 03:31:55;;;;;;;3.22;2.03;;;21.70;44.70;;;;;;4998492;28;20251;-78
2023/06/05 03:34:25;;;;;;;2.45;2.25;;;21.70;44.60;;;;;;5013771;28;20216;-78
2023/06/05 03:36:54;;;;;;;2.42;2.00;;;21.70;44.60;;;;;;5014634;28;20200;-78
2023/06/05 03:39:22;;;;;;;3.55;2.10;;;21.70;44.50;;;;;;5013732;28;20197;-78
2023/06/05 03:41:49;;;;;;;2.40;2.20;;;21.80;44.50;;;;;;5013714;28;20227;-78
2023/06/05 03:44:16;;;;;;;2.13;1.98;;;21.80;44.40;;;;;;5029398;28;20290;-78
2023/06/05 03:46:44;;;;;;;2.33;2.10;;;21.80;44.30;;;;;;5030238;28;20217;-78
2023/06/05 03:49:12;;;;;;;2.42;2.10;;;21.80;44.30;;;;;;5030004;28;20294;-78
2023/06/05 03:51:39;;;;;;;2.28;2.08;;;21.90;44.30;;;;;;5030098;28;20201;-78
2023/06/05 03:54:08;;;;;;;2.28;2.08;;;21.80;44.20;;;;;;5014514;28;20223;-78
2023/06/05 03:56:42;;;;;;;2.28;2.08;;;21.90;44.20;;;;;;5030077;28;20247;-78
2023/06/05 03:59:18;;;;;;;2.13;1.92;;;21.90;44.20;;;;;;5013527;28;20246;-78
2023/06/05 04:01:47;;;;;;;2.40;2.20;;;21.90;44.10;;;;;;5014312;28;20200;-78
2023/06/05 04:04:15;;;;;;;2.60;2.40;;;21.90;44.20;;;;;;5029882;28;20223;-79
2023/06/05 04:06:43;;;;;;;2.78;2.30;;;21.90;43.70;;;;;;5014133;28;20319;-79
2023/06/05 04:09:11;;;;;;;2.50;2.30;;;21.90;43.50;;;;;;5029920;28;20283;-79
2023/06/05 04:11:41;;;;;;;2.42;2.10;;;21.90;43.00;;;;;;5013672;28;20211;-79
2023/06/05 04:14:10;;;;;;;3.55;2.53;;;21.90;42.80;;;;;;5030656;28;20220;-79
2023/06/05 04:16:38;;;;;;;2.45;2.22;;;21.90;42.80;;;;;;5029632;28;20287;-79
2023/06/05 04:19:07;;;;;;;2.60;2.40;;;21.80;42.60;;;;;;5013252;28;20208;-78
2023/06/05 04:21:35;;;;;;;2.95;2.42;;;21.90;42.50;;;;;;5013238;28;20218;-78
2023/06/05 04:24:06;;;;;;;3.65;2.50;;;21.80;42.10;;;;;;5013351;28;20224;-79
2023/06/05 04:26:33;;;;;;;2.92;2.63;;;21.90;42.10;;;;;;4997424;28;20614;-79
2023/06/05 04:29:02;;;;;;;2.60;2.40;;;21.80;42.00;;;;;;5013288;28;20643;-80
2023/06/05 04:31:30;;;;;;;2.58;2.20;;;21.70;41.80;;;;;;5029417;28;20216;-79
2023/06/05 04:33:58;;;;;;;3.65;2.42;;;21.80;42.00;;;;;;5012832;28;20201;-79
2023/06/05 04:36:25;;;;;;;3.00;2.72;;;21.70;41.80;;;;;;5031959;28;20663;-79
2023/06/05 04:38:52;;;;;;;3.05;2.55;;;21.70;41.90;;;;;;5032131;28;20255;-80
2023/06/05 04:41:21;;;;;;;2.60;2.30;;;21.70;42.20;;;;;;5039460;28;20212;-80
2023/06/05 04:43:48;;;;;;;2.63;2.42;;;21.80;42.30;;;;;;5055126;28;20181;-80
2023/06/05 04:46:18;;;;;;;3.63;2.38;;;21.80;42.20;;;;;;5034344;28;20267;-80
2023/06/05 04:48:45;;;;;;;4.00;2.50;;;22.00;42.50;;;;;;5013141;28;20207;-80
2023/06/05 04:51:12;;;;;;;2.88;2.60;;;22.20;42.40;;;;;;5013704;28;20197;-80
2023/06/05 04:53:41;;;;;;;3.08;2.60;;;22.30;41.90;;;;;;5015180;28;20221;-81
2023/06/05 04:56:10;;;;;;;3.42;2.88;;;22.50;41.70;;;;;;5002501;28;20188;-80
2023/06/05 04:58:37;;;;;;;3.22;2.50;;;22.60;41.30;;;;;;5017900;28;20196;-80
2023/06/05 05:01:06;;;;;;;3.08;2.60;;;22.80;41.20;;;;;;5033583;28;20234;-80
2023/06/05 05:03:37;;;;;;;2.72;2.50;;;22.90;41.00;;;;;;5033745;28;20196;-80
2023/06/05 05:06:05;;;;;;;3.88;2.47;;;23.10;40.90;;;;;;5033233;28;20299;-81
2023/06/05 05:08:32;;;;;;;3.10;2.70;;;23.20;40.40;;;;;;5017093;28;20197;-79
2023/06/05 05:10:59;;;;;;;3.10;2.55;;;23.30;40.10;;;;;;5033489;28;20232;-80
2023/06/05 05:13:26;;;;;;;2.90;2.60;;;23.50;39.90;;;;;;5017456;28;20195;-81
2023/06/05 05:15:54;;;;;;;3.78;2.67;;;23.50;39.50;;;;;;5017841;28;20213;-80
2023/06/05 05:18:22;;;;;;;2.90;2.47;;;23.60;39.50;;;;;;5017129;28;20193;-81
2023/06/05 05:20:51;;;;;;;3.95;2.78;;;23.70;40.00;;;;;;5033164;28;20215;-80
2023/06/05 05:23:18;;;;;;;2.92;2.72;;;23.80;39.30;;;;;;5000492;28;20204;-81
2023/06/05 05:25:45;;;;;;;2.75;2.50;;;23.90;39.20;;;;;;5000303;28;20586;-79
2023/06/05 05:28:13;;;;;;;3.03;2.63;;;24.00;39.10;;;;;;5017280;28;20196;-81
2023/06/05 05:30:41;;;;;;;2.95;2.60;;;24.10;39.00;;;;;;5000038;28;20721;-81
2023/06/05 05:33:08;;;;;;;3.10;2.65;;;24.20;39.20;;;;;;5000183;28;20205;-81
2023/06/05 05:35:35;;;;;;;3.10;2.70;;;24.20;39.10;;;;;;5016103;28;20224;-80
2023/06/05 05:38:04;;;;;;;3.30;3.00;;;24.30;39.00;;;;;;5016229;28;20208;-80
2023/06/05 05:40:30;;;;;;;4.05;2.97;;;24.40;38.90;;;;;;5015881;28;20570;-81
2023/06/05 05:42:57;;;;;;;2.95;2.65;;;24.50;38.90;;;;;;5032637;28;20208;-81
2023/06/05 05:45:25;;;;;;;3.85;2.70;;;24.50;38.60;;;;;;5032409;28;20266;-81
2023/06/05 05:47:51;;;;;;;3.33;2.97;;;24.70;38.50;;;;;;5016926;28;20212;-81
2023/06/05 05:50:19;;;;;;;3.83;2.72;;;24.70;38.30;;;;;;5016089;28;20224;-81
2023/06/05 05:52:47;;;;;;;3.50;2.60;;;24.80;38.10;;;;;;5015971;28;20247;-81
2023/06/05 05:55:16;;;;;;;2.88;2.50;;;24.90;38.10;;;;;;5016197;28;20307;-81
2023/06/05 05:57:43;;;;;;;3.20;2.90;;;25.00;38.00;;;;;;4999882;28;20228;-81
2023/06/05 06:00:12;;;;;;;3.63;2.70;;;25.10;37.80;;;;;;5000640;28;20295;-81
2023/06/05 06:02:39;;;;;;;3.30;2.92;;;25.20;37.70;;;;;;5017272;28;20201;-81
2023/06/05 06:05:06;;;;;;;3.00;2.70;;;25.30;37.70;;;;;;5033411;28;20229;-81
2023/06/05 06:07:35;;;;;;;3.30;2.88;;;25.30;37.50;;;;;;5017650;28;20243;-81
2023/06/05 06:10:02;;;;;;;3.42;2.88;;;25.40;37.40;;;;;;5018007;28;20201;-81
2023/06/05 06:12:30;;;;;;;3.15;2.83;;;25.50;37.30;;;;;;5017669;28;20675;-81
2023/06/05 06:14:57;;;;;;;3.20;2.88;;;25.60;37.20;;;;;;5017405;28;20590;-81
2023/06/05 06:17:24;;;;;;;4.70;3.00;;;25.60;37.10;;;;;;5017948;28;20220;-81
2023/06/05 06:19:52;;;;;;;3.55;3.25;;;25.70;37.00;;;;;;5015575;28;20208;-81
2023/06/05 06:22:20;;;;;;;3.35;3.03;;;25.70;36.90;;;;;;5031735;28;20651;-81
2023/06/05 06:24:47;;;;;;;3.78;3.20;;;25.80;36.80;;;;;;5031931;28;20220;-81
2023/06/05 06:27:15;;;;;;;4.90;3.40;;;25.80;36.60;;;;;;5033057;28;20217;-81
2023/06/05 06:29:49;;;;;;;4.60;3.20;;;25.90;36.50;;;;;;5015640;28;20192;-81
2023/06/05 06:32:17;;;;;;;3.88;3.20;;;26.00;36.60;;;;;;5032208;28;20200;-81
2023/06/05 06:34:44;;;;;;;8.13;3.47;;;26.00;36.40;;;;;;5015732;28;20626;-81
2023/06/05 06:37:14;;;;;;;4.57;3.30;;;26.10;36.40;;;;;;5015665;28;20228;-81
2023/06/05 06:39:41;;;;;;;6.65;3.60;;;26.10;36.20;;;;;;5015482;28;20201;-81
2023/06/05 06:42:10;;;;;;;5.03;3.50;;;26.20;36.10;;;;;;5031909;28;20271;-81
2023/06/05 06:44:40;;;;;;;4.32;3.35;;;26.20;36.00;;;;;;5015675;28;20236;-81
2023/06/05 06:47:08;;;;;;;4.20;3.22;;;26.30;35.90;;;;;;5015778;28;20232;-81
2023/06/05 06:49:35;;;;;;;4.25;3.22;;;26.40;35.80;;;;;;5014788;28;20196;-81
2023/06/05 06:52:02;;;;;;;3.33;3.03;;;26.40;35.80;;;;;;5014717;28;20208;-81
2023/06/05 06:54:29;;;;;;;5.00;3.20;;;26.40;35.60;;;;;;5031008;28;20221;-81
2023/06/05 06:56:57;;;;;;;6.05;3.25;;;26.50;35.70;;;;;;5015218;28;20197;-81
2023/06/05 06:59:24;;;;;;;5.13;3.40;;;26.50;35.50;;;;;;5014803;28;20232;-81
2023/06/05 07:02:12;;;;;;;4.28;3.10;;;26.60;35.40;;;;;;5030995;28;20196;-81
2023/06/05 07:04:40;;;;;;;6.10;3.63;;;26.60;35.40;;;;;;5015314;28;20216;-81
2023/06/05 07:07:09;;;;;;;3.83;3.10;;;26.60;35.30;;;;;;5014630;28;20307;-81
2023/06/05 07:09:36;;;;;;;3.35;3.05;;;26.70;35.20;;;;;;5014701;28;20204;-81
2023/06/05 07:12:05;;;;;;;3.65;3.10;;;26.80;35.80;;;;;;5030734;28;20207;-81
2023/06/05 07:14:33;;;;;;;3.47;3.17;;;26.80;35.00;;;;;;4998386;28;20224;-81
2023/06/05 07:17:00;;;;;;;4.13;3.10;;;26.80;35.00;;;;;;5030607;28;20723;-81
2023/06/05 07:19:29;;;;;;;3.40;3.10;;;26.90;34.90;;;;;;5029766;28;20200;-81
2023/06/05 07:21:57;;;;;;;5.30;3.25;;;26.90;34.80;;;;;;5031234;28;20211;-81
2023/06/05 07:24:25;;;;;;;3.35;2.95;;;27.00;34.90;;;;;;5031323;28;20221;-81
2023/06/05 07:26:53;;;;;;;4.15;2.92;;;27.00;34.80;;;;;;5014622;28;20690;-81
2023/06/05 07:29:20;;;;;;;4.22;3.15;;;27.00;34.70;;;;;;5031071;28;20200;-81
2023/06/05 07:31:47;;;;;;;3.58;3.08;;;27.10;34.60;;;;;;5014030;28;20196;-81
2023/06/05 07:34:15;;;;;;;3.63;2.80;;;27.10;34.60;;;;;;5030588;28;20631;-81
2023/06/05 07:36:45;;;;;;;4.57;2.97;;;27.10;34.40;;;;;;5014051;28;20193;-81
2023/06/05 07:39:12;;;;;;;4.78;3.03;;;27.20;34.50;;;;;;5030893;28;20197;-81
2023/06/05 07:41:39;;;;;;;3.88;2.88;;;27.20;34.40;;;;;;5013943;28;20639;-81
2023/06/05 07:44:07;;;;;;;3.40;3.08;;;27.20;34.40;;;;;;5013637;28;20216;-81
2023/06/05 07:46:34;;;;;;;4.03;3.10;;;27.20;34.30;;;;;;5014258;28;20201;-81
2023/06/05 07:49:01;;;;;;;4.28;3.08;;;27.20;34.40;;;;;;5013963;28;20204;-81
2023/06/05 07:51:29;;;;;;;2.75;2.55;;;27.30;34.90;;;;;;5030169;28;20215;-81
2023/06/05 07:54:00;;;;;;;3.10;2.80;;;27.20;34.20;;;;;;5014478;28;20568;-81
2023/06/05 07:56:31;;;;;;;3.58;3.00;;;27.30;34.20;;;;;;5014624;28;20632;-80
2023/06/05 07:58:58;;;;;;;4.38;3.00;;;27.30;34.10;;;;;;5031719;28;20188;-81
2023/06/05 08:01:25;;;;;;;3.20;2.90;;;27.30;34.20;;;;;;5035907;28;20179;-79
2023/06/05 08:03:52;;;;;;;3.58;2.85;;;27.30;34.20;;;;;;5055330;28;20203;-77
2023/06/05 08:06:19;;;;;;;3.15;2.80;;;27.30;34.20;;;;;;5052081;28;20173;-80
2023/06/05 08:08:46;;;;;;;3.30;3.00;;;27.40;34.30;;;;;;5038402;28;20212;-80
2023/06/05 08:11:14;;;;;;;3.95;3.03;;;27.40;34.20;;;;;;5036293;28;20193;-80
2023/06/05 08:13:42;;;;;;;3.80;2.92;;;27.40;34.20;;;;;;5014017;28;20255;-80
2023/06/05 08:16:09;;;;;;;3.25;2.65;;;27.50;34.20;;;;;;4998405;28;20666;-80
2023/06/05 08:18:35;;;;;;;2.95;2.60;;;27.50;34.20;;;;;;5031938;28;20197;-80
2023/06/05 08:21:03;;;;;;;3.10;2.80;;;27.60;34.30;;;;;;5016061;28;20200;-81
2023/06/05 08:23:30;;;;;;;2.95;2.70;;;27.60;34.20;;;;;;5014084;28;20246;-81
2023/06/05 08:25:57;;;;;;;3.20;2.90;;;27.60;34.10;;;;;;5013866;28;20247;-81
2023/06/05 08:28:25;;;;;;;3.08;2.72;;;27.60;34.10;;;;;;5013734;28;20694;-81
2023/06/05 08:30:52;;;;;;;3.28;2.53;;;27.60;34.10;;;;;;5029598;28;20196;-81
2023/06/05 08:33:20;;;;;;;3.08;2.78;;;27.70;34.20;;;;;;5030415;28;20255;-81
2023/06/05 08:35:47;;;;;;;3.90;3.00;;;27.70;34.10;;;;;;5013421;28;20223;-81
2023/06/05 08:38:14;;;;;;;3.05;2.72;;;27.70;34.10;;;;;;5013222;28;20200;-81
2023/06/05 08:40:41;;;;;;;3.15;2.55;;;27.70;34.00;;;;;;5013085;28;20211;-81
2023/06/05 08:43:08;;;;;;;3.10;2.80;;;27.70;34.00;;;;;;5013406;28;20227;-81
2023/06/05 08:45:37;;;;;;;3.47;2.70;;;27.80;34.00;;;;;;5013720;28;20710;-81
2023/06/05 08:48:04;;;;;;;3.00;2.70;;;27.80;34.00;;;;;;5029417;28;20223;-81
2023/06/05 08:50:31;;;;;;;3.40;2.90;;;27.80;34.00;;;;;;5013152;28;20219;-81
2023/06/05 08:52:59;;;;;;;3.72;3.00;;;27.80;34.00;;;;;;5029651;28;20203;-81
2023/06/05 08:55:26;;;;;;;3.15;2.83;;;27.80;34.00;;;;;;5029880;28;20223;-81
2023/06/05 08:57:53;;;;;;;3.20;2.90;;;27.80;34.00;;;;;;5029765;28;20192;-81
2023/06/05 09:00:22;;;;;;;3.15;2.72;;;27.80;34.20;;;;;;5012813;28;20196;-81
2023/06/05 09:02:50;;;;;;;2.97;2.78;;;27.80;34.10;;;;;;5012770;28;20567;-81
2023/06/05 09:05:17;;;;;;;3.55;2.97;;;27.90;34.20;;;;;;4997023;28;20215;-81
2023/06/05 09:07:45;;;;;;;2.83;2.63;;;27.80;34.20;;;;;;5014058;28;20215;-81
2023/06/05 09:10:24;;;;;;;3.40;2.55;;;27.90;34.30;;;;;;5014005;28;20230;-81
2023/06/05 09:12:55;;;;;;;3.10;2.80;;;27.80;34.20;;;;;;4996627;28;20273;-81
2023/06/05 09:15:23;;;;;;;3.08;2.65;;;27.80;34.20;;;;;;5012685;28;20323;-81
2023/06/05 09:18:08;;;;;;;3.20;2.70;;;27.90;34.30;;;;;;5013151;28;20200;-81
2023/06/05 09:20:35;;;;;;;4.00;2.65;;;27.80;34.30;;;;;;5029703;28;20322;-81
2023/06/05 09:23:03;;;;;;;2.90;2.70;;;27.80;34.30;;;;;;5013402;28;20612;-81
2023/06/05 09:25:47;;;;;;;2.70;2.50;;;27.80;34.40;;;;;;5012562;28;20211;-81
2023/06/05 09:28:15;;;;;;;2.80;2.60;;;27.80;34.50;;;;;;5029101;28;20220;-81
2023/06/05 09:30:55;;;;;;;3.20;2.90;;;27.80;34.40;;;;;;5029197;28;20302;-81
2023/06/05 09:33:24;;;;;;;3.00;2.70;;;27.80;34.40;;;;;;5012597;28;20216;-81
2023/06/05 09:36:06;;;;;;;2.88;2.65;;;27.80;34.40;;;;;;5012839;28;20239;-81
2023/06/05 09:38:33;;;;;;;3.75;2.80;;;27.80;34.50;;;;;;4997583;28;20185;-80
2023/06/05 09:41:07;;;;;;;3.65;2.90;;;27.80;34.60;;;;;;5014445;28;20204;-80
2023/06/05 09:43:35;;;;;;;2.60;2.40;;;27.80;34.60;;;;;;5032702;28;20291;-80
2023/06/05 09:46:07;;;;;;;3.13;2.80;;;27.80;34.60;;;;;;5016011;28;20274;-80
2023/06/05 09:48:36;;;;;;;2.97;2.72;;;27.80;34.60;;;;;;5016053;28;20212;-81
2023/06/05 09:51:11;;;;;;;2.88;2.63;;;27.80;34.60;;;;;;5016134;28;20673;-81
2023/06/05 09:53:41;;;;;;;2.83;2.45;;;27.80;34.70;;;;;;5015993;28;20192;-81
2023/06/05 09:56:09;;;;;;;2.72;2.53;;;27.80;34.70;;;;;;5032745;28;20565;-81
2023/06/05 09:58:37;;;;;;;3.08;2.75;;;27.70;34.70;;;;;;5016819;28;20641;-81
2023/06/05 10:01:05;;;;;;;2.88;2.67;;;27.80;34.80;;;;;;5016864;28;20619;-81
2023/06/05 10:03:32;;;;;;;2.95;2.70;;;27.70;34.80;;;;;;5016302;28;20207;-81
2023/06/05 10:06:00;;;;;;;3.72;2.78;;;27.70;34.80;;;;;;5015812;28;20231;-81
2023/06/05 10:08:27;;;;;;;2.78;2.50;;;27.70;34.80;;;;;;5016041;28;20208;-80
2023/06/05 10:10:54;;;;;;;2.78;2.58;;;27.70;34.90;;;;;;5016124;28;20287;-80
2023/06/05 10:13:21;;;;;;;2.70;2.47;;;27.60;35.00;;;;;;5031859;28;20664;-80
2023/06/05 10:15:48;;;;;;;2.80;2.60;;;27.50;35.20;;;;;;5015389;28;20216;-80
2023/06/05 10:18:15;;;;;;;2.80;2.60;;;27.40;35.50;;;;;;5015577;28;20193;-80
2023/06/05 10:20:42;;;;;;;2.90;2.60;;;27.30;35.60;;;;;;5015304;28;20258;-80
2023/06/05 10:23:11;;;;;;;2.67;2.47;;;27.20;35.70;;;;;;5032178;28;20240;-80
2023/06/05 10:25:38;;;;;;;2.50;2.30;;;27.20;35.90;;;;;;5015229;28;20278;-80
2023/06/05 10:28:14;;;;;;;2.63;2.42;;;27.20;35.90;;;;;;5031717;28;20683;-80
2023/06/05 10:31:19;;;;;;;3.90;2.65;;;27.20;36.10;;;;;;5016152;28;20282;-80
2023/06/05 10:34:23;;;;;;;2.90;2.70;;;27.20;36.20;;;;;;5016635;28;20187;-80
2023/06/05 10:37:21;;;;;;;3.58;2.80;;;27.10;36.10;;;;;;5001317;28;20207;-80
2023/06/05 10:39:50;;;;;;;3.70;2.70;;;27.10;36.20;;;;;;5031604;28;20196;-80
2023/06/05 10:42:24;;;;;;;2.63;2.42;;;27.10;36.20;;;;;;5031439;28;20291;-80
2023/06/05 10:44:51;;;;;;;2.85;2.65;;;27.10;36.40;;;;;;5014841;28;20228;-80
2023/06/05 10:47:49;;;;;;;2.80;2.60;;;27.10;36.40;;;;;;5014843;28;20211;-80
2023/06/05 10:50:28;;;;;;;2.80;2.60;;;27.00;36.50;;;;;;5014806;28;20681;-80
2023/06/05 10:52:57;;;;;;;3.20;2.90;;;27.00;36.60;;;;;;5014571;28;20222;-80
2023/06/05 10:55:26;;;;;;;3.20;2.80;;;27.00;36.60;;;;;;5014550;28;20707;-80
2023/06/05 10:58:10;;;;;;;3.10;2.80;;;27.00;36.60;;;;;;5014937;28;20223;-80
2023/06/05 11:00:38;;;;;;;3.05;2.78;;;27.00;36.70;;;;;;5031277;28;20204;-81
2023/06/05 11:03:05;;;;;;;2.80;2.60;;;26.90;36.70;;;;;;5014933;28;20192;-81
2023/06/05 11:05:32;;;;;;;3.35;2.55;;;26.90;36.80;;;;;;5017487;28;20220;-81
2023/06/05 11:08:14;;;;;;;2.67;2.47;;;26.80;36.70;;;;;;5015921;28;20243;-81
2023/06/05 11:11:09;;;;;;;2.70;2.50;;;26.90;36.80;;;;;;5031356;28;20367;-81
2023/06/05 11:13:55;;;;;;;2.92;2.63;;;26.80;36.90;;;;;;5014592;28;20192;-81
2023/06/05 11:16:29;;;;;;;2.75;2.55;;;26.90;37.00;;;;;;5017108;28;20200;-81
2023/06/05 11:19:35;;;;;;;2.78;2.50;;;26.80;37.00;;;;;;5016152;28;20654;-80
2023/06/05 11:22:03;;;;;;;3.25;2.60;;;26.80;37.10;;;;;;5030833;28;20190;-77
2023/06/05 11:24:31;;;;;;;2.83;2.63;;;26.70;37.00;;;;;;5039362;28;20280;-77
2023/06/05 11:26:59;;;;;;;2.90;2.60;;;26.70;37.10;;;;;;5011906;28;20188;-80
2023/06/05 11:29:26;;;;;;;2.75;2.28;;;26.60;37.10;;;;;;5014567;28;20216;-81
2023/06/05 11:31:53;;;;;;;2.67;2.47;;;26.60;37.80;;;;;;5014160;28;20232;-81
2023/06/05 11:34:20;;;;;;;2.40;2.20;;;26.60;37.30;;;;;;5030441;28;20224;-80
2023/06/05 11:36:49;;;;;;;3.17;2.63;;;26.60;37.30;;;;;;5030815;28;20201;-80
2023/06/05 11:39:16;;;;;;;2.45;2.25;;;26.60;37.30;;;;;;5030316;28;20196;-80
2023/06/05 11:41:47;;;;;;;3.10;2.80;;;26.60;37.30;;;;;;4997909;28;20211;-80
2023/06/05 11:44:15;;;;;;;2.60;2.40;;;26.60;37.30;;;;;;5014223;28;20213;-80
2023/06/05 11:46:43;;;;;;;2.63;2.42;;;26.60;37.30;;;;;;5014958;28;20200;-80
2023/06/05 11:49:24;;;;;;;2.92;2.60;;;26.60;37.40;;;;;;4998087;28;20699;-80
2023/06/05 11:51:52;;;;;;;2.65;2.45;;;26.60;37.50;;;;;;5014435;28;20271;-80
2023/06/05 11:54:30;;;;;;;2.72;2.53;;;26.60;37.40;;;;;;5013852;28;20216;-80
2023/06/05 11:57:07;;;;;;;3.20;2.58;;;26.60;37.40;;;;;;5030432;28;20239;-81
2023/06/05 11:59:36;;;;;;;2.72;2.50;;;26.60;37.50;;;;;;5013400;28;20199;-81
2023/06/05 12:02:04;;;;;;;2.60;2.40;;;26.60;37.60;;;;;;5013591;28;20255;-80
2023/06/05 12:04:31;;;;;;;2.95;2.42;;;26.60;37.60;;;;;;5013448;28;20212;-81
2023/06/05 12:06:59;;;;;;;2.67;2.47;;;26.50;37.60;;;;;;5014332;28;20199;-81
2023/06/05 12:09:26;;;;;;;2.50;2.30;;;26.50;37.70;;;;;;5013192;28;20746;-81
2023/06/05 12:11:53;;;;;;;2.65;2.45;;;26.50;37.80;;;;;;5013341;28;20212;-81
2023/06/05 12:14:31;;;;;;;2.60;2.40;;;26.50;37.80;;;;;;5029690;28;20254;-81
2023/06/05 12:16:59;;;;;;;2.67;2.47;;;26.50;37.80;;;;;;5029693;28;20199;-81
2023/06/05 12:19:26;;;;;;;2.53;2.33;;;26.50;37.80;;;;;;5013026;28;20655;-81
2023/06/05 12:22:02;;;;;;;2.80;2.60;;;26.50;37.80;;;;;;5013030;28;20647;-81
2023/06/05 12:24:29;;;;;;;2.70;2.50;;;26.50;37.90;;;;;;5013266;28;20225;-80
2023/06/05 12:26:58;;;;;;;2.47;2.28;;;26.50;37.90;;;;;;5029505;28;20197;-80
2023/06/05 12:29:27;;;;;;;2.72;2.53;;;26.50;37.90;;;;;;5012805;28;20216;-80
2023/06/05 12:31:54;;;;;;;2.60;2.40;;;26.50;37.90;;;;;;5013160;28;20234;-80
2023/06/05 12:34:41;;;;;;;2.67;2.22;;;26.50;37.90;;;;;;5029499;28;20223;-80
2023/06/05 12:37:08;;;;;;;2.70;2.50;;;26.40;38.00;;;;;;5013168;28;20198;-80
2023/06/05 12:39:36;;;;;;;2.47;2.30;;;26.40;38.00;;;;;;5013023;28;20193;-80
2023/06/05 12:42:03;;;;;;;3.00;2.75;;;26.50;38.10;;;;;;5029350;28;20205;-80
2023/06/05 12:44:30;;;;;;;3.05;2.83;;;26.40;38.10;;;;;;5012806;28;20217;-80
2023/06/05 12:46:57;;;;;;;2.60;2.40;;;26.40;38.10;;;;;;5029420;28;20192;-80
2023/06/05 12:49:25;;;;;;;2.80;2.60;;;26.40;38.10;;;;;;5029161;28;20223;-80
2023/06/05 12:51:54;;;;;;;2.53;2.33;;;26.40;38.20;;;;;;5013758;28;20257;-80
2023/06/05 12:54:21;;;;;;;2.63;2.42;;;26.40;38.20;;;;;;5029326;28;20251;-80
2023/06/05 12:56:49;;;;;;;2.75;2.53;;;26.40;38.20;;;;;;5012891;28;20686;-80
2023/06/05 12:59:16;;;;;;;2.70;2.50;;;26.40;38.20;;;;;;5029112;28;20207;-80
2023/06/05 13:01:43;;;;;;;2.70;2.50;;;26.40;38.40;;;;;;5029375;28;20249;-80